^^

NEARBY METAR REPORTS

KSQI - Sterling Rockfal, Illinois, USA
Distance from station: ESE 17mi, 27km
Updated: 10/18/2018 1:56am
NOT Current
Clear
Clear
 Wind from calm
Wind: Calm
Temperature: 30°F , -1°C
Dew Point: 28°F , -2°C
Humidity: 93%
Barometer: 30.50 inHg , 1032.8 hPa
Clouds: Clear
Visibility: 10 miles , 16 km
2018/10/18 06:56 KSQI 180656Z AUTO 00000KT 10SM CLR M01/M02 A3050 RMK AO2 SLP354 T10111022 FZRANO PNO $
KCWI - Clinton Muni, Iowa, USA
Distance from station: W 17mi, 28km
Updated: 10/18/2018 1:56am
NOT Current
Clear
Clear
 Wind from NE
Wind: NE 5 mph , 7 km/h
Temperature: 30°F , -1°C
Wind Chill: 25°F , -4°C
Dew Point: 28°F , -2°C
Humidity: 93%
Barometer: 30.50 inHg , 1032.8 hPa
Clouds: Clear
Visibility: 10 miles , 16 km
2018/10/18 06:56 KCWI 180656Z AUTO 05004KT 10SM CLR M01/M02 A3050 RMK AO2 SLP356 T10061022 FZRANO
KSFY - Savanna/Tritown, Illinois, USA
Distance from station: NNW 17mi, 28km
Updated: 10/18/2018 2:36am
Clear
Clear
 Wind from calm
Wind: Calm
Temperature: 30°F , -1°C
Dew Point: 30°F , -1°C
Humidity: 100%
Barometer: 30.50 inHg , 1032.8 hPa
Clouds: Clear
Visibility: 10 miles , 16 km
2018/10/18 07:36 KSFY 180736Z AUTO 00000KT 10SM CLR M01/M01 A3050 RMK AO2
KDVN - Davenport/Quad C, Iowa, USA
Distance from station: WSW 34mi, 55km
Updated: 10/18/2018 1:52am
NOT Current
Clear
Clear
 Wind from WSW
Wind: WSW 6 mph , 9 km/h
Temperature: 34°F , 1°C
Wind Chill: 29°F , -2°C
Dew Point: 28°F , -2°C
Humidity: 81%
Barometer: 30.51 inHg , 1033.2 hPa
Clouds: Clear
Visibility: 10 miles , 16 km
2018/10/18 06:52 KDVN 180652Z AUTO 24005KT 10SM CLR 01/M02 A3051 RMK AO2 SLP334 T00061022
KFEP - Freeport, Illinois, USA
Distance from station: NE 36mi, 58km
Updated: 10/18/2018 2:35am
Clear
Clear
 Wind from calm
Wind: Calm
Temperature: 32°F , 0°C
Dew Point: 27°F , -3°C
Humidity: 80%
Barometer: 30.51 inHg , 1033.2 hPa
Clouds: Clear
Visibility: 10 miles , 16 km
2018/10/18 07:35 KFEP 180735Z AUTO 00000KT 10SM CLR 00/M03 A3051 RMK AO2 T10051030
KMLI - Moline/Quad City, Illinois, USA
Distance from station: SW 38mi, 61km
Updated: 10/18/2018 1:52am
NOT Current
Clear
Clear
 Wind from calm
Wind: Calm
Temperature: 32°F , 0°C
Dew Point: 30°F , -1°C
Humidity: 93%
Barometer: 30.50 inHg , 1032.8 hPa
Clouds: Clear
Visibility: 10 miles , 16 km
2018/10/18 06:52 KMLI 180652Z AUTO 00000KT 10SM CLR 00/M01 A3050 RMK AO2 SLP332 T00001011
KRPJ - Rochelle/Koritz, Illinois, USA
Distance from station: E 46mi, 75km
Updated: 10/18/2018 2:35am
Clear
Clear
 Wind from calm
Wind: Calm
Temperature: 27°F , -3°C
Dew Point: 25°F , -4°C
Humidity: 93%
Barometer: 30.50 inHg , 1032.8 hPa
Clouds: Clear
Visibility: 10 miles , 16 km
2018/10/18 07:35 KRPJ 180735Z AUTO 00000KT 10SM CLR M03/M04 A3050 RMK AO2 T10261037
KRFD - Rockford, Illinois, USA
Distance from station: ENE 52mi, 84km
Updated: 10/18/2018 1:54am
NOT Current
Clear
Clear
 Wind from calm
Wind: Calm
Temperature: 32°F , 0°C
Dew Point: 27°F , -3°C
Humidity: 80%
Barometer: 30.50 inHg , 1032.8 hPa
Clouds: Clear
Visibility: 10 miles , 16 km
2018/10/18 06:54 KRFD 180654Z 00000KT 10SM CLR 00/M03 A3050 RMK AO2 SLP335 T00001033
KVYS - Peru, Illinois, USA
Distance from station: SE 54mi, 86km
Updated: 10/18/2018 2:35am
Clear
Clear
 Wind from calm
Wind: Calm
Temperature: 36°F , 2°C
Dew Point: 30°F , -1°C
Humidity: 81%
Barometer: 30.51 inHg , 1033.2 hPa
Clouds: Clear
Visibility: 10 miles , 16 km
2018/10/18 07:35 KVYS 180735Z AUTO 00000KT 10SM CLR 02/M01 A3051 RMK AO2 T00211006
KDBQ - Dubuque, Iowa, USA
Distance from station: NW 55mi, 88km
Updated: 10/18/2018 1:53am
NOT Current
Clear
Clear
 Wind from N
Wind: N 6 mph , 9 km/h
Temperature: 32°F , 0°C
Wind Chill: 26°F , -3°C
Dew Point: 25°F , -4°C
Humidity: 75%
Barometer: 30.49 inHg , 1032.5 hPa
Clouds: Clear
Visibility: 10 miles , 16 km
2018/10/18 06:53 KDBQ 180653Z AUTO 01005KT 10SM CLR 00/M04 A3049 RMK AO2 SLP333 T00001039